Decoded Metar for FEFF (BANGUI in CENTRAL AFRICAN REP.) (IATA:BGF) | Meteo·Mobile Aviation Weather
aviador You're here:

FEFF Decoded Metar

BANGUI in CENTRAL AFRICAN REP.
Report Time2019-11-14 10:00:00
UTC Time2019-11-14 10:46:06
Flight Rules vfr VFR
Wind180° at 04 kt
W.Decomp.*RWY 17: 4.0 kt HW 0.6 kt RCW
Visibility9999 m
Phenomena:N/A
Clouds:Scattered 016 Hf
Expected CloudBase > 2,800 ft AGL from Temp-Dew spread
CeilingNone
Temp31°C (ISA +18)
Dew Point24°C (66% RH)
Heat Index36.4°C
QNH1010 hPa
Density Alt3,799 ft
Elevation1,201 ft
Report Wrong Elevation
Raw Report
FEFF 141000Z 18004KT 9999 SCT016 31/24 Q1010 NOSIG=

Extra information for FEFF:More info

Metar Taf Metar & Taf Last 4 Metars F.Rules Stats Wind Profile Meteogram Temp Stats Airport Information Weather charts Add Link Nearby VenuesMetar ALERT Operation Metar Decoded Social comments